Time;durP1;ratioP1;P1;durP2;ratioP2;P2;SDS_P1;SDS_P2;PMS_P1;PMS_P2;Temp;Humidity;BMP_temperature;BMP_pressure;BME280_temperature;BME280_humidity;BME280_pressure;Samples;Min_cycle;Max_cycle;Signal;HPM_P1;HPM_P2
2022/03/16 00:00:00;;;;;;;11.00;9.90;;;;;;;;;;4990252;28;20780;-60
2022/03/16 00:02:26;;;;;;;10.57;9.47;;;;;;;;;;4988538;28;20626;-60
2022/03/16 00:04:53;;;;;;;10.87;9.73;;;;;;;;;;4991611;28;20209;-59
2022/03/16 00:07:19;;;;;;;10.37;9.33;;;;;;;;;;4988763;28;20197;-59
2022/03/16 00:09:45;;;;;;;11.07;9.97;;;;;;;;;;4988615;28;20258;-59
2022/03/16 00:12:11;;;;;;;11.43;9.47;;;;;;;;;;4989884;28;20203;-60
2022/03/16 00:14:37;;;;;;;11.63;9.77;;;;;;;;;;4988445;28;20236;-60
2022/03/16 00:17:04;;;;;;;10.43;9.30;;;;;;;;;;4987825;28;20933;-60
2022/03/16 00:19:30;;;;;;;10.67;9.63;;;;;;;;;;4986501;28;20741;-60
2022/03/16 00:21:57;;;;;;;10.60;9.37;;;;;;;;;;4985429;28;20333;-59
2022/03/16 00:24:23;;;;;;;10.77;9.77;;;;;;;;;;4991014;28;20244;-60
2022/03/16 00:26:48;;;;;;;10.93;9.27;;;;;;;;;;4986456;28;20192;-59
2022/03/16 00:29:14;;;;;;;10.73;9.37;;;;;;;;;;4994137;28;20201;-60
2022/03/16 00:31:40;;;;;;;10.20;9.20;;;;;;;;;;4993314;28;20607;-60
2022/03/16 00:34:06;;;;;;;11.10;9.90;;;;;;;;;;4996037;28;20256;-60
2022/03/16 00:36:32;;;;;;;10.83;9.67;;;;;;;;;;4994132;28;20640;-60
2022/03/16 00:38:58;;;;;;;10.93;9.60;;;;;;;;;;5001064;28;20623;-59
2022/03/16 00:41:24;;;;;;;12.30;10.07;;;;;;;;;;5001788;28;20598;-59
2022/03/16 00:43:50;;;;;;;10.93;9.87;;;;;;;;;;5008120;28;20185;-60
2022/03/16 00:46:16;;;;;;;10.97;9.80;;;;;;;;;;5005900;28;20262;-60
2022/03/16 00:48:42;;;;;;;11.97;10.37;;;;;;;;;;5012632;28;20193;-59
2022/03/16 00:51:10;;;;;;;11.83;10.53;;;;;;;;;;5008993;28;20575;-60
2022/03/16 00:53:38;;;;;;;11.50;10.33;;;;;;;;;;4999700;28;20224;-60
2022/03/16 00:56:04;;;;;;;11.73;10.50;;;;;;;;;;4995848;28;25660;-59
2022/03/16 00:58:30;;;;;;;11.47;10.27;;;;;;;;;;4990702;28;20220;-60
2022/03/16 01:00:56;;;;;;;10.80;9.70;;;;;;;;;;4990229;28;20228;-60
2022/03/16 01:03:22;;;;;;;11.30;10.20;;;;;;;;;;4993827;28;20700;-60
2022/03/16 01:05:48;;;;;;;12.70;11.03;;;;;;;;;;4996990;28;20243;-60
2022/03/16 01:08:14;;;;;;;11.50;10.30;;;;;;;;;;4994715;28;20189;-60
2022/03/16 01:10:40;;;;;;;12.00;10.90;;;;;;;;;;4998245;28;20205;-60
2022/03/16 01:13:06;;;;;;;12.27;10.90;;;;;;;;;;4993639;28;20769;-59
2022/03/16 01:15:32;;;;;;;12.47;11.17;;;;;;;;;;4991584;28;20207;-59
2022/03/16 01:17:58;;;;;;;11.67;10.50;;;;;;;;;;4992094;28;20217;-60
2022/03/16 01:20:24;;;;;;;11.40;10.20;;;;;;;;;;4987991;28;20196;-59
2022/03/16 01:22:50;;;;;;;11.40;10.23;;;;;;;;;;4992788;28;20259;-59
2022/03/16 01:25:16;;;;;;;11.87;10.63;;;;;;;;;;4990341;28;20229;-60
2022/03/16 01:27:42;;;;;;;13.03;11.47;;;;;;;;;;4991568;28;20347;-59
2022/03/16 01:30:08;;;;;;;12.50;11.13;;;;;;;;;;4980247;28;20752;-60
2022/03/16 01:32:34;;;;;;;11.70;10.50;;;;;;;;;;4992055;28;20197;-60
2022/03/16 01:35:00;;;;;;;11.50;10.40;;;;;;;;;;4989607;28;20193;-59
2022/03/16 01:37:26;;;;;;;12.10;10.90;;;;;;;;;;4988518;28;20909;-60
2022/03/16 01:39:52;;;;;;;12.10;10.70;;;;;;;;;;4992037;28;20207;-61
2022/03/16 01:42:20;;;;;;;12.33;11.03;;;;;;;;;;4996265;28;20193;-59
2022/03/16 01:44:48;;;;;;;12.83;11.63;;;;;;;;;;4999727;28;20474;-60
2022/03/16 01:47:14;;;;;;;12.73;11.43;;;;;;;;;;4991896;28;20195;-60
2022/03/16 01:49:40;;;;;;;12.57;11.17;;;;;;;;;;4990526;28;20200;-60
2022/03/16 01:52:06;;;;;;;12.67;11.37;;;;;;;;;;4990566;28;20232;-59
2022/03/16 01:54:32;;;;;;;12.63;11.30;;;;;;;;;;4989733;28;20357;-59
2022/03/16 01:56:58;;;;;;;13.67;11.90;;;;;;;;;;4990754;28;20243;-60
2022/03/16 01:59:24;;;;;;;12.50;11.20;;;;;;;;;;4989478;28;20271;-60
2022/03/16 02:01:50;;;;;;;12.77;11.47;;;;;;;;;;4987768;28;20197;-60
2022/03/16 02:04:16;;;;;;;13.30;11.90;;;;;;;;;;4985701;28;20216;-59
2022/03/16 02:06:42;;;;;;;14.10;11.50;;;;;;;;;;4993446;28;20606;-60
2022/03/16 02:09:08;;;;;;;13.27;11.83;;;;;;;;;;4983235;28;20683;-60
2022/03/16 02:11:34;;;;;;;14.00;11.43;;;;;;;;;;4989183;28;20189;-60
2022/03/16 02:14:01;;;;;;;12.30;11.10;;;;;;;;;;4986607;28;20194;-60
2022/03/16 02:16:27;;;;;;;13.60;11.97;;;;;;;;;;4983665;28;20197;-60
2022/03/16 02:18:53;;;;;;;12.90;11.40;;;;;;;;;;4987349;28;21187;-59
2022/03/16 02:21:19;;;;;;;12.90;11.53;;;;;;;;;;4986883;28;20193;-59
2022/03/16 02:23:45;;;;;;;13.33;11.93;;;;;;;;;;4985050;28;20201;-60
2022/03/16 02:26:14;;;;;;;12.90;11.63;;;;;;;;;;4975453;28;20267;-60
2022/03/16 02:28:40;;;;;;;13.30;11.93;;;;;;;;;;4987406;28;20193;-59
2022/03/16 02:31:06;;;;;;;13.80;12.20;;;;;;;;;;4985303;28;20208;-59
2022/03/16 02:33:32;;;;;;;15.10;12.20;;;;;;;;;;4989580;28;20196;-60
2022/03/16 02:35:58;;;;;;;15.60;12.77;;;;;;;;;;4988739;28;20272;-60
2022/03/16 02:38:24;;;;;;;14.20;12.70;;;;;;;;;;4987640;28;20217;-59
2022/03/16 02:40:50;;;;;;;14.23;12.43;;;;;;;;;;4981644;28;20188;-60
2022/03/16 02:43:16;;;;;;;15.33;12.33;;;;;;;;;;4990414;28;20279;-59
2022/03/16 02:45:42;;;;;;;14.43;12.40;;;;;;;;;;4991696;28;21079;-60
2022/03/16 02:48:08;;;;;;;13.10;11.67;;;;;;;;;;4985156;28;20631;-59
2022/03/16 02:50:34;;;;;;;14.23;12.80;;;;;;;;;;4985747;28;20188;-60
2022/03/16 02:53:00;;;;;;;15.17;12.73;;;;;;;;;;4990658;28;20254;-60
2022/03/16 02:55:26;;;;;;;14.23;12.50;;;;;;;;;;4988252;28;20867;-59
2022/03/16 02:57:51;;;;;;;12.67;11.37;;;;;;;;;;4984084;28;20577;-59
2022/03/16 03:00:18;;;;;;;14.93;12.53;;;;;;;;;;4990055;28;20808;-60
2022/03/16 03:02:44;;;;;;;13.70;12.17;;;;;;;;;;4987472;28;20193;-59
2022/03/16 03:05:10;;;;;;;14.93;12.33;;;;;;;;;;4985590;28;20213;-59
2022/03/16 03:07:36;;;;;;;13.73;11.97;;;;;;;;;;4991018;28;20200;-59
2022/03/16 03:10:02;;;;;;;14.53;11.43;;;;;;;;;;4996392;28;20204;-60
2022/03/16 03:12:33;;;;;;;13.00;11.70;;;;;;;;;;4983607;28;20196;-60
2022/03/16 03:14:59;;;;;;;13.33;11.93;;;;;;;;;;4987648;28;20228;-60
2022/03/16 03:17:25;;;;;;;13.97;12.47;;;;;;;;;;4985940;28;20236;-59
2022/03/16 03:19:51;;;;;;;13.50;11.93;;;;;;;;;;4983781;28;20196;-59
2022/03/16 03:22:17;;;;;;;13.37;11.97;;;;;;;;;;4993037;28;20558;-60
2022/03/16 03:24:44;;;;;;;14.70;12.77;;;;;;;;;;4990167;28;20226;-59
2022/03/16 03:27:10;;;;;;;13.33;11.93;;;;;;;;;;4982449;28;20216;-59
2022/03/16 03:29:36;;;;;;;14.67;12.07;;;;;;;;;;4989080;28;20540;-60
2022/03/16 03:32:02;;;;;;;13.20;11.03;;;;;;;;;;4987042;28;21597;-60
2022/03/16 03:34:28;;;;;;;13.53;11.63;;;;;;;;;;4986409;28;20708;-59
2022/03/16 03:36:54;;;;;;;13.33;11.93;;;;;;;;;;4992602;28;20262;-64
2022/03/16 03:39:20;;;;;;;12.40;11.17;;;;;;;;;;4985146;28;21763;-60
2022/03/16 03:41:46;;;;;;;13.87;11.53;;;;;;;;;;4987014;28;20193;-59
2022/03/16 03:44:12;;;;;;;15.53;12.63;;;;;;;;;;4987613;28;20197;-59
2022/03/16 03:46:38;;;;;;;13.13;11.50;;;;;;;;;;4987471;28;20800;-59
2022/03/16 03:49:04;;;;;;;12.60;11.30;;;;;;;;;;4989039;28;20196;-59
2022/03/16 03:51:30;;;;;;;12.87;11.47;;;;;;;;;;4995163;28;20197;-60
2022/03/16 03:53:56;;;;;;;12.10;10.90;;;;;;;;;;4997132;28;20182;-59
2022/03/16 03:56:22;;;;;;;12.33;11.13;;;;;;;;;;4993801;28;20185;-60
2022/03/16 03:58:48;;;;;;;12.20;10.90;;;;;;;;;;4994539;28;20205;-60
2022/03/16 04:01:15;;;;;;;13.33;11.07;;;;;;;;;;4992360;28;20194;-60
2022/03/16 04:03:42;;;;;;;13.17;11.73;;;;;;;;;;4995022;28;20196;-60
2022/03/16 04:06:08;;;;;;;13.47;12.07;;;;;;;;;;5001090;28;20593;-60
2022/03/16 04:08:34;;;;;;;12.73;11.50;;;;;;;;;;4994283;28;20544;-59
2022/03/16 04:11:01;;;;;;;13.17;11.87;;;;;;;;;;4996325;28;20205;-59
2022/03/16 04:13:26;;;;;;;14.07;12.50;;;;;;;;;;4998823;28;20233;-60
2022/03/16 04:15:52;;;;;;;16.67;13.17;;;;;;;;;;4999498;28;20313;-60
2022/03/16 04:18:18;;;;;;;14.20;12.17;;;;;;;;;;5000141;28;20300;-60
2022/03/16 04:20:44;;;;;;;12.93;11.60;;;;;;;;;;4996038;28;21192;-60
2022/03/16 04:23:10;;;;;;;13.50;12.10;;;;;;;;;;4998589;28;20185;-59
2022/03/16 04:25:36;;;;;;;13.90;12.17;;;;;;;;;;4996152;28;20241;-60
2022/03/16 04:28:02;;;;;;;15.23;11.73;;;;;;;;;;5000130;28;20537;-60
2022/03/16 04:30:28;;;;;;;13.30;11.90;;;;;;;;;;4994003;28;20590;-60
2022/03/16 04:32:54;;;;;;;13.83;12.33;;;;;;;;;;4996719;28;20201;-60
2022/03/16 04:35:20;;;;;;;12.60;11.30;;;;;;;;;;4993271;28;20220;-60
2022/03/16 04:37:47;;;;;;;12.57;11.10;;;;;;;;;;4994184;28;20217;-59
2022/03/16 04:40:13;;;;;;;12.73;11.43;;;;;;;;;;4991868;28;20351;-59
2022/03/16 04:42:39;;;;;;;13.37;11.97;;;;;;;;;;4991881;28;20267;-59
2022/03/16 04:45:05;;;;;;;13.27;11.50;;;;;;;;;;4991007;28;20204;-60
2022/03/16 04:47:31;;;;;;;13.13;11.70;;;;;;;;;;4994512;28;20194;-59
2022/03/16 04:49:57;;;;;;;13.37;11.97;;;;;;;;;;4993998;28;20212;-60
2022/03/16 04:52:25;;;;;;;13.53;12.13;;;;;;;;;;4997107;28;20198;-59
2022/03/16 04:54:51;;;;;;;13.50;12.10;;;;;;;;;;4992366;28;20247;-60
2022/03/16 04:57:17;;;;;;;13.70;12.30;;;;;;;;;;4996353;28;20217;-60
2022/03/16 04:59:42;;;;;;;15.17;12.50;;;;;;;;;;4992493;28;20189;-59
2022/03/16 05:02:08;;;;;;;13.90;12.40;;;;;;;;;;4994019;28;20199;-60
2022/03/16 05:04:34;;;;;;;15.03;13.23;;;;;;;;;;4995833;28;20295;-59
2022/03/16 05:07:00;;;;;;;13.93;12.50;;;;;;;;;;4992548;28;20287;-59
2022/03/16 05:09:26;;;;;;;15.83;13.40;;;;;;;;;;4986879;28;20198;-59
2022/03/16 05:11:52;;;;;;;14.70;13.20;;;;;;;;;;4988843;28;20644;-59
2022/03/16 05:14:18;;;;;;;14.80;13.13;;;;;;;;;;4989180;28;20657;-60
2022/03/16 05:16:44;;;;;;;14.87;13.27;;;;;;;;;;4995295;28;20276;-59
2022/03/16 05:19:10;;;;;;;14.97;13.37;;;;;;;;;;4996545;28;20812;-59
2022/03/16 05:21:36;;;;;;;14.70;13.07;;;;;;;;;;5004488;28;20224;-59
2022/03/16 05:24:02;;;;;;;14.83;12.83;;;;;;;;;;5000438;28;20185;-59
2022/03/16 05:26:28;;;;;;;16.17;14.30;;;;;;;;;;4997099;28;21365;-59
2022/03/16 05:28:54;;;;;;;16.53;13.93;;;;;;;;;;4996069;28;20188;-59
2022/03/16 05:31:23;;;;;;;16.80;14.43;;;;;;;;;;4985981;28;20243;-59
2022/03/16 05:33:49;;;;;;;18.77;15.37;;;;;;;;;;4986484;28;20204;-58
2022/03/16 05:36:15;;;;;;;20.63;15.37;;;;;;;;;;4985846;28;20205;-59
2022/03/16 05:38:41;;;;;;;19.80;15.57;;;;;;;;;;4988596;28;20217;-59
2022/03/16 05:41:07;;;;;;;19.50;16.03;;;;;;;;;;4985397;28;20728;-60
2022/03/16 05:43:33;;;;;;;23.03;17.50;;;;;;;;;;4985621;28;20903;-60
2022/03/16 05:46:01;;;;;;;21.43;16.93;;;;;;;;;;4990697;28;20220;-59
2022/03/16 05:48:27;;;;;;;21.37;17.27;;;;;;;;;;4991504;28;20200;-60
2022/03/16 05:50:53;;;;;;;21.73;17.47;;;;;;;;;;4992175;28;20201;-59
2022/03/16 05:53:19;;;;;;;21.97;17.63;;;;;;;;;;4991222;28;20941;-59
2022/03/16 05:55:45;;;;;;;22.90;17.23;;;;;;;;;;4992230;28;20311;-60
2022/03/16 05:58:11;;;;;;;24.57;17.90;;;;;;;;;;4992168;28;20304;-59
2022/03/16 06:00:39;;;;;;;23.03;17.47;;;;;;;;;;4991200;28;20678;-59
2022/03/16 06:03:05;;;;;;;22.00;17.37;;;;;;;;;;4994553;28;20224;-59
2022/03/16 06:05:31;;;;;;;23.77;18.00;;;;;;;;;;4996507;28;20685;-59
2022/03/16 06:07:58;;;;;;;21.67;17.07;;;;;;;;;;4992691;28;20408;-59
2022/03/16 06:10:24;;;;;;;22.00;17.63;;;;;;;;;;4983072;28;20201;-59
2022/03/16 06:12:51;;;;;;;22.70;17.30;;;;;;;;;;4985758;28;20194;-59
2022/03/16 06:15:16;;;;;;;21.27;16.60;;;;;;;;;;4983857;28;21178;-59
2022/03/16 06:17:43;;;;;;;18.87;15.37;;;;;;;;;;4983960;28;20255;-57
2022/03/16 06:20:09;;;;;;;20.90;16.40;;;;;;;;;;4991802;28;20238;-59
2022/03/16 06:22:35;;;;;;;19.47;15.90;;;;;;;;;;4994170;28;20200;-59
2022/03/16 06:25:01;;;;;;;19.23;16.47;;;;;;;;;;4989729;28;20229;-59
2022/03/16 06:27:27;;;;;;;19.33;15.53;;;;;;;;;;4997654;28;20220;-59
2022/03/16 06:29:53;;;;;;;16.53;14.70;;;;;;;;;;5003535;28;20193;-60
2022/03/16 06:32:18;;;;;;;18.80;15.33;;;;;;;;;;4993684;28;20197;-60
2022/03/16 06:34:46;;;;;;;15.87;13.87;;;;;;;;;;5001853;28;20220;-60
2022/03/16 06:37:12;;;;;;;22.67;13.50;;;;;;;;;;4996292;28;20619;-60
2022/03/16 06:39:38;;;;;;;15.40;13.70;;;;;;;;;;4992731;28;20196;-60
2022/03/16 06:42:04;;;;;;;16.63;13.43;;;;;;;;;;4994945;28;20255;-60
2022/03/16 06:44:30;;;;;;;17.30;13.23;;;;;;;;;;4992930;28;20659;-61
2022/03/16 06:46:56;;;;;;;15.10;13.03;;;;;;;;;;4999195;28;20251;-60
2022/03/16 06:49:22;;;;;;;15.83;13.63;;;;;;;;;;4995579;28;20635;-60
2022/03/16 06:51:48;;;;;;;16.40;12.57;;;;;;;;;;4993846;28;20515;-60
2022/03/16 06:54:14;;;;;;;14.57;12.00;;;;;;;;;;5001253;28;20189;-60
2022/03/16 06:56:40;;;;;;;13.97;12.40;;;;;;;;;;4994470;28;20202;-60
2022/03/16 06:59:06;;;;;;;14.30;12.10;;;;;;;;;;5003370;28;20659;-59
2022/03/16 07:01:32;;;;;;;13.77;11.80;;;;;;;;;;4997418;28;20203;-60
2022/03/16 07:03:58;;;;;;;15.20;12.57;;;;;;;;;;4996561;28;20188;-60
2022/03/16 07:06:24;;;;;;;14.47;12.90;;;;;;;;;;4997693;28;20190;-61
2022/03/16 07:08:50;;;;;;;13.37;12.00;;;;;;;;;;4996475;28;20312;-62
2022/03/16 07:11:16;;;;;;;13.47;12.07;;;;;;;;;;5004350;28;20791;-61
2022/03/16 07:14:30;;;;;;;14.53;12.33;;;;;;;;;;4999322;28;20239;-60
2022/03/16 07:16:29;;;;;;;14.67;13.10;;;;;;;;;;4997422;28;20228;-61
2022/03/16 07:18:55;;;;;;;14.33;12.93;;;;;;;;;;5000090;28;20208;-60
2022/03/16 07:21:21;;;;;;;15.47;13.87;;;;;;;;;;5002678;28;20771;-60
2022/03/16 07:23:47;;;;;;;14.70;13.20;;;;;;;;;;4998811;28;20575;-60
2022/03/16 07:26:13;;;;;;;16.10;13.37;;;;;;;;;;4999975;28;20967;-60
2022/03/16 07:28:39;;;;;;;19.43;14.43;;;;;;;;;;5000006;28;20213;-60
2022/03/16 07:31:05;;;;;;;17.33;13.97;;;;;;;;;;4990709;28;20642;-61
2022/03/16 07:33:31;;;;;;;17.17;14.83;;;;;;;;;;4998619;28;20185;-60
2022/03/16 07:35:57;;;;;;;19.10;15.53;;;;;;;;;;5002089;28;20745;-60
2022/03/16 07:38:23;;;;;;;18.73;15.07;;;;;;;;;;5004665;28;20212;-60
2022/03/16 07:40:49;;;;;;;18.13;15.70;;;;;;;;;;4993590;28;20214;-61
2022/03/16 07:43:15;;;;;;;20.10;16.77;;;;;;;;;;4991436;28;20189;-66
2022/03/16 07:45:41;;;;;;;22.47;17.03;;;;;;;;;;4996770;28;20283;-61
2022/03/16 07:48:07;;;;;;;17.57;15.00;;;;;;;;;;5004416;28;20653;-61
2022/03/16 07:50:34;;;;;;;17.67;13.70;;;;;;;;;;4998130;28;24666;-61
2022/03/16 07:53:00;;;;;;;19.77;14.80;;;;;;;;;;5004475;28;20198;-60
2022/03/16 07:55:26;;;;;;;18.17;14.87;;;;;;;;;;5003174;28;20240;-60
2022/03/16 07:57:54;;;;;;;17.40;15.40;;;;;;;;;;4999739;28;20739;-60
2022/03/16 08:00:20;;;;;;;18.30;14.97;;;;;;;;;;5005912;28;20185;-60
2022/03/16 08:02:46;;;;;;;23.33;16.17;;;;;;;;;;5004976;28;20263;-60
2022/03/16 08:05:12;;;;;;;19.37;16.17;;;;;;;;;;5009509;28;20202;-59
2022/03/16 08:07:38;;;;;;;19.93;16.40;;;;;;;;;;5013102;28;20194;-61
2022/03/16 08:10:04;;;;;;;17.20;15.30;;;;;;;;;;5002606;28;20201;-60
2022/03/16 08:12:30;;;;;;;19.73;16.10;;;;;;;;;;4997604;28;20759;-60
2022/03/16 08:14:56;;;;;;;16.93;15.13;;;;;;;;;;5003745;28;20193;-61
2022/03/16 08:17:22;;;;;;;17.47;15.67;;;;;;;;;;5001914;28;20758;-60
2022/03/16 08:19:48;;;;;;;16.47;14.67;;;;;;;;;;5001346;28;20900;-61
2022/03/16 08:22:23;;;;;;;17.80;15.80;;;;;;;;;;5000958;28;20200;-61
2022/03/16 08:24:53;;;;;;;16.23;14.63;;;;;;;;;;5008355;28;20228;-61
2022/03/16 08:27:19;;;;;;;16.90;15.10;;;;;;;;;;5004874;28;20194;-61
2022/03/16 08:29:45;;;;;;;20.30;15.50;;;;;;;;;;5004542;28;20193;-61
2022/03/16 08:32:11;;;;;;;17.00;15.20;;;;;;;;;;5003348;28;20204;-62
2022/03/16 08:34:37;;;;;;;16.73;14.07;;;;;;;;;;5004639;28;20214;-60
2022/03/16 08:37:03;;;;;;;15.53;13.93;;;;;;;;;;5003949;28;20662;-62
2022/03/16 08:39:29;;;;;;;18.40;14.57;;;;;;;;;;5002378;28;20984;-61
2022/03/16 08:41:55;;;;;;;15.30;13.70;;;;;;;;;;5004429;28;20259;-61
2022/03/16 08:44:23;;;;;;;15.73;13.60;;;;;;;;;;4999362;28;20186;-61
2022/03/16 08:46:50;;;;;;;15.70;13.60;;;;;;;;;;5002963;28;20225;-60
2022/03/16 08:49:16;;;;;;;16.67;13.87;;;;;;;;;;5004663;28;20622;-61
2022/03/16 08:51:42;;;;;;;15.13;13.63;;;;;;;;;;4999518;28;20199;-61
2022/03/16 08:54:08;;;;;;;15.83;14.17;;;;;;;;;;5000285;28;20185;-60
2022/03/16 08:56:35;;;;;;;14.73;13.33;;;;;;;;;;5003664;28;20203;-60
2022/03/16 08:59:01;;;;;;;14.73;13.33;;;;;;;;;;5003808;28;20217;-60
2022/03/16 09:01:27;;;;;;;14.20;12.90;;;;;;;;;;4994157;28;20655;-60
2022/03/16 09:03:53;;;;;;;13.67;12.30;;;;;;;;;;4993551;28;20197;-61
2022/03/16 09:06:19;;;;;;;14.33;12.87;;;;;;;;;;4995732;28;20236;-61
2022/03/16 09:08:45;;;;;;;13.77;12.47;;;;;;;;;;4997307;28;20301;-60
2022/03/16 09:11:11;;;;;;;13.40;12.10;;;;;;;;;;4998751;28;20669;-61
2022/03/16 09:13:37;;;;;;;13.63;12.33;;;;;;;;;;5001418;28;20188;-60
2022/03/16 09:16:03;;;;;;;13.37;12.13;;;;;;;;;;5002985;28;20606;-61
2022/03/16 09:18:29;;;;;;;12.57;11.37;;;;;;;;;;4999899;28;20686;-61
2022/03/16 09:20:55;;;;;;;12.80;11.60;;;;;;;;;;5004094;28;20325;-61
2022/03/16 09:23:21;;;;;;;12.87;11.67;;;;;;;;;;5007231;28;20280;-61
2022/03/16 09:25:47;;;;;;;13.20;11.90;;;;;;;;;;5004689;28;20680;-61
2022/03/16 09:28:13;;;;;;;13.43;12.17;;;;;;;;;;5008538;28;20194;-61
2022/03/16 09:30:39;;;;;;;12.60;11.47;;;;;;;;;;5006911;28;20747;-61
2022/03/16 09:33:05;;;;;;;13.30;12.00;;;;;;;;;;4989154;28;20196;-61
2022/03/16 09:35:33;;;;;;;11.50;10.50;;;;;;;;;;4992428;28;20220;-61
2022/03/16 09:37:59;;;;;;;12.80;11.47;;;;;;;;;;5000091;28;20220;-61
2022/03/16 09:40:25;;;;;;;12.40;11.20;;;;;;;;;;4998475;28;20598;-60
2022/03/16 09:42:51;;;;;;;12.50;11.40;;;;;;;;;;5004337;28;20193;-60
2022/03/16 09:45:20;;;;;;;11.67;10.57;;;;;;;;;;5002403;28;20202;-61
2022/03/16 09:47:47;;;;;;;12.10;10.97;;;;;;;;;;5006863;28;20465;-60
2022/03/16 09:50:13;;;;;;;11.80;10.70;;;;;;;;;;5004300;28;20217;-61
2022/03/16 09:52:40;;;;;;;11.47;10.47;;;;;;;;;;5002523;28;20239;-60
2022/03/16 09:55:06;;;;;;;10.50;9.60;;;;;;;;;;5006142;28;20228;-60
2022/03/16 09:57:32;;;;;;;10.80;9.83;;;;;;;;;;5004765;28;20213;-61
2022/03/16 09:59:59;;;;;;;10.63;9.73;;;;;;;;;;5010493;28;20662;-60
2022/03/16 10:02:26;;;;;;;10.17;9.17;;;;;;;;;;5010551;28;20567;-60
2022/03/16 10:04:52;;;;;;;11.40;10.47;;;;;;;;;;5015081;28;20292;-60
2022/03/16 10:07:18;;;;;;;10.63;9.63;;;;;;;;;;5011141;28;20247;-60
2022/03/16 10:15:15;;;;;;;9.93;9.13;;;;;;;;;;5006183;28;20288;-60
2022/03/16 10:17:44;;;;;;;10.40;9.30;;;;;;;;;;5005686;28;20235;-60
2022/03/16 10:20:12;;;;;;;10.55;9.57;;;;;;;;;;5008793;28;20208;-60
2022/03/16 10:22:40;;;;;;;9.85;8.82;;;;;;;;;;5002854;28;20200;-59
2022/03/16 10:25:06;;;;;;;9.70;8.90;;;;;;;;;;5005133;28;20229;-60
2022/03/16 10:27:39;;;;;;;9.32;8.43;;;;;;;;;;5006056;28;20271;-60
2022/03/16 10:30:05;;;;;;;9.07;8.27;;;;;;;;;;5001516;28;20684;-60
2022/03/16 10:32:32;;;;;;;8.48;7.68;;;;;;;;;;4983583;28;20189;-60
2022/03/16 10:34:58;;;;;;;8.45;7.63;;;;;;;;;;4999782;28;20205;-60
2022/03/16 10:37:24;;;;;;;8.60;7.90;;;;;;;;;;4997599;28;20223;-60
2022/03/16 10:39:51;;;;;;;8.88;8.07;;;;;;;;;;4998450;28;20181;-60
2022/03/16 10:48:20;;;;;;;7.25;6.65;;;;;;;;;;4998457;28;20663;-60
2022/03/16 10:50:46;;;;;;;6.63;6.13;;;;;;;;;;4996441;28;20665;-60
2022/03/16 10:53:15;;;;;;;6.85;6.28;;;;;;;;;;4996515;28;20205;-60
2022/03/16 10:55:41;;;;;;;6.97;6.38;;;;;;;;;;4996847;28;20906;-59
2022/03/16 10:58:07;;;;;;;6.22;5.72;;;;;;;;;;5000032;28;20220;-59
2022/03/16 11:00:34;;;;;;;6.60;6.00;;;;;;;;;;5003562;28;20706;-60
2022/03/16 11:03:01;;;;;;;6.80;6.20;;;;;;;;;;5007272;28;20181;-59
2022/03/16 11:05:27;;;;;;;6.45;5.95;;;;;;;;;;5010874;28;20217;-59
2022/03/16 11:07:53;;;;;;;6.65;6.10;;;;;;;;;;5004445;28;20201;-59
2022/03/16 11:10:19;;;;;;;6.32;5.72;;;;;;;;;;5006351;28;20190;-59
2022/03/16 11:15:31;;;;;;;5.78;5.35;;;;;;;;;;5002113;28;20624;-59
2022/03/16 11:17:56;;;;;;;5.88;5.38;;;;;;;;;;4994100;28;20331;-58
2022/03/16 11:20:23;;;;;;;5.18;4.78;;;;;;;;;;5000934;28;20199;-59
2022/03/16 11:25:47;;;;;;;5.65;5.25;;;;;;;;;;4994600;28;20244;-59
2022/03/16 11:28:14;;;;;;;5.53;5.13;;;;;;;;;;4997721;28;20185;-58
2022/03/16 11:30:41;;;;;;;6.40;5.90;;;;;;;;;;4998396;28;20261;-59
2022/03/16 11:33:10;;;;;;;5.85;5.35;;;;;;;;;;5000085;28;20201;-59
2022/03/16 11:35:37;;;;;;;5.65;5.22;;;;;;;;;;5000476;28;20189;-59
2022/03/16 11:38:03;;;;;;;5.75;5.13;;;;;;;;;;4998326;28;20225;-59
2022/03/16 11:40:29;;;;;;;5.93;5.43;;;;;;;;;;5000405;28;20200;-59
2022/03/16 11:43:05;;;;;;;6.03;5.60;;;;;;;;;;4998622;28;20231;-59
2022/03/16 11:45:36;;;;;;;5.90;5.40;;;;;;;;;;5003610;28;20243;-59
2022/03/16 11:48:21;;;;;;;5.55;5.15;;;;;;;;;;4996965;28;20197;-58
2022/03/16 11:51:09;;;;;;;5.43;5.00;;;;;;;;;;5001673;28;20196;-59
2022/03/16 11:56:24;;;;;;;5.45;4.97;;;;;;;;;;5000231;28;20603;-59
2022/03/16 11:58:54;;;;;;;5.75;4.97;;;;;;;;;;5002803;28;20263;-59
2022/03/16 12:01:37;;;;;;;5.40;5.00;;;;;;;;;;5005821;28;20181;-59
2022/03/16 12:04:19;;;;;;;5.70;5.20;;;;;;;;;;5004196;28;20192;-59
2022/03/16 12:06:48;;;;;;;5.30;4.90;;;;;;;;;;5009538;28;20185;-59
2022/03/16 12:09:20;;;;;;;5.70;5.20;;;;;;;;;;5001209;28;20266;-59
2022/03/16 12:15:02;;;;;;;5.28;4.88;;;;;;;;;;5003442;28;20191;-59
2022/03/16 12:17:28;;;;;;;5.25;4.82;;;;;;;;;;5004703;28;20224;-59
2022/03/16 12:20:10;;;;;;;5.90;5.40;;;;;;;;;;5001893;28;20271;-60
2022/03/16 12:22:39;;;;;;;4.55;4.20;;;;;;;;;;4998776;28;20185;-59
2022/03/16 12:25:27;;;;;;;5.30;4.90;;;;;;;;;;5000231;28;20228;-59
2022/03/16 12:31:00;;;;;;;4.90;4.50;;;;;;;;;;4997052;28;20212;-59
2022/03/16 12:33:26;;;;;;;4.78;4.38;;;;;;;;;;4997235;28;20177;-59
2022/03/16 12:36:04;;;;;;;5.15;4.75;;;;;;;;;;5000341;28;20216;-59
2022/03/16 12:38:31;;;;;;;4.78;4.38;;;;;;;;;;5003764;28;20220;-59
2022/03/16 12:43:45;;;;;;;4.40;4.10;;;;;;;;;;4999910;28;20312;-59
2022/03/16 12:46:17;;;;;;;4.70;4.35;;;;;;;;;;5003319;28;20572;-59
2022/03/16 12:48:43;;;;;;;4.90;4.50;;;;;;;;;;5007680;28;20608;-59
2022/03/16 12:51:09;;;;;;;4.85;4.45;;;;;;;;;;4999575;28;20193;-59
2022/03/16 12:53:39;;;;;;;6.47;4.40;;;;;;;;;;5003349;28;20434;-59
2022/03/16 12:56:05;;;;;;;4.60;4.20;;;;;;;;;;4997321;28;20599;-59
2022/03/16 12:58:32;;;;;;;5.35;4.53;;;;;;;;;;4995822;28;20282;-58
2022/03/16 13:00:58;;;;;;;4.95;4.65;;;;;;;;;;4995218;28;21202;-58
2022/03/16 13:03:24;;;;;;;4.93;4.53;;;;;;;;;;5000482;28;20540;-59
2022/03/16 13:05:52;;;;;;;5.38;4.85;;;;;;;;;;5004467;28;20694;-59
2022/03/16 13:08:18;;;;;;;5.82;4.75;;;;;;;;;;5005621;28;20193;-58
2022/03/16 13:13:29;;;;;;;5.38;4.97;;;;;;;;;;5001742;28;20187;-60
2022/03/16 13:16:00;;;;;;;5.07;4.60;;;;;;;;;;4998647;28;20197;-58
2022/03/16 13:18:32;;;;;;;5.95;5.15;;;;;;;;;;5000299;28;20216;-61
2022/03/16 13:20:58;;;;;;;6.03;5.45;;;;;;;;;;5003739;28;20204;-56
2022/03/16 13:23:32;;;;;;;6.80;5.30;;;;;;;;;;5000473;28;20184;-57
2022/03/16 13:26:06;;;;;;;6.15;5.65;;;;;;;;;;5000409;28;20261;-59
2022/03/16 13:28:31;;;;;;;7.13;5.88;;;;;;;;;;5000309;28;20199;-59
2022/03/16 13:30:57;;;;;;;6.28;5.68;;;;;;;;;;5000803;28;20193;-58
2022/03/16 13:33:27;;;;;;;8.02;4.88;;;;;;;;;;4999746;28;20190;-59
2022/03/16 13:36:08;;;;;;;6.95;5.63;;;;;;;;;;5000157;28;20195;-57
2022/03/16 13:38:37;;;;;;;6.68;5.82;;;;;;;;;;4996005;28;20706;-56
2022/03/16 13:41:15;;;;;;;6.05;5.55;;;;;;;;;;4987592;28;20185;-56
2022/03/16 13:43:41;;;;;;;5.88;5.40;;;;;;;;;;4996817;28;20217;-54
2022/03/16 13:46:14;;;;;;;6.70;6.10;;;;;;;;;;4997391;28;20295;-56
2022/03/16 13:48:44;;;;;;;6.57;5.83;;;;;;;;;;5002766;28;20288;-56
2022/03/16 13:51:11;;;;;;;6.43;5.83;;;;;;;;;;5001333;28;20262;-56
2022/03/16 13:53:47;;;;;;;7.40;6.07;;;;;;;;;;5000281;28;20599;-56
2022/03/16 13:56:14;;;;;;;6.90;6.20;;;;;;;;;;5000642;28;20197;-57
2022/03/16 13:58:40;;;;;;;7.13;6.40;;;;;;;;;;4997495;28;20209;-55
2022/03/16 14:01:06;;;;;;;7.03;6.33;;;;;;;;;;4998799;28;20220;-57
2022/03/16 14:03:33;;;;;;;6.70;6.10;;;;;;;;;;5001822;28;20653;-57
2022/03/16 14:06:00;;;;;;;6.47;5.87;;;;;;;;;;5007933;28;20666;-56
2022/03/16 14:08:26;;;;;;;6.80;6.03;;;;;;;;;;5007031;28;20707;-56
2022/03/16 14:10:56;;;;;;;6.80;6.20;;;;;;;;;;5002909;28;20189;-56
2022/03/16 14:13:28;;;;;;;8.70;7.80;;;;;;;;;;5002793;28;20201;-56
2022/03/16 14:16:10;;;;;;;7.43;6.70;;;;;;;;;;5008700;28;20321;-57
2022/03/16 14:18:36;;;;;;;23.53;7.97;;;;;;;;;;5005907;28;20801;-55
2022/03/16 14:21:03;;;;;;;23.27;8.53;;;;;;;;;;5004526;28;20251;-58
2022/03/16 14:23:30;;;;;;;15.07;7.47;;;;;;;;;;5000787;28;20189;-56
2022/03/16 14:25:57;;;;;;;14.27;7.10;;;;;;;;;;5004749;28;20225;-55
2022/03/16 14:28:23;;;;;;;13.23;6.87;;;;;;;;;;5006999;28;20186;-55
2022/03/16 14:30:49;;;;;;;11.60;7.10;;;;;;;;;;5003405;28;20639;-55
2022/03/16 14:33:22;;;;;;;13.90;8.73;;;;;;;;;;5002671;28;20189;-60
2022/03/16 14:35:50;;;;;;;8.53;6.90;;;;;;;;;;4997781;28;21062;-56
2022/03/16 14:38:16;;;;;;;9.33;7.03;;;;;;;;;;4995163;28;20232;-56
2022/03/16 14:40:42;;;;;;;9.07;7.00;;;;;;;;;;5001979;28;20739;-56
2022/03/16 14:43:08;;;;;;;7.90;7.20;;;;;;;;;;5002217;28;20201;-56
2022/03/16 14:45:34;;;;;;;7.50;6.80;;;;;;;;;;5006903;28;20744;-56
2022/03/16 14:48:00;;;;;;;9.40;6.93;;;;;;;;;;5001330;28;20662;-55
2022/03/16 14:50:29;;;;;;;8.93;6.83;;;;;;;;;;4998031;28;20220;-56
2022/03/16 14:53:05;;;;;;;8.77;7.30;;;;;;;;;;4994967;28;20276;-56
2022/03/16 14:55:31;;;;;;;10.73;7.43;;;;;;;;;;5005990;28;20700;-56